sensor_id;sensor_type;location;lat;lon;timestamp;pressure;altitude;pressure_sealevel;temperature;humidity
69351;BME280;57106;51.446;-2.606;2023-02-18T00:01:14;102358.82;;;11.01;82.65
69351;BME280;57106;51.446;-2.606;2023-02-18T00:03:32;102356.65;;;11.24;81.54
69351;BME280;57106;51.446;-2.606;2023-02-18T00:05:58;102350.74;;;11.41;80.50
69351;BME280;57106;51.446;-2.606;2023-02-18T00:08:28;102354.16;;;11.36;79.91
69351;BME280;57106;51.446;-2.606;2023-02-18T00:10:54;102350.60;;;11.43;79.83
69351;BME280;57106;51.446;-2.606;2023-02-18T00:13:14;102349.99;;;11.66;78.43
69351;BME280;57106;51.446;-2.606;2023-02-18T00:15:41;102350.83;;;11.93;78.30
69351;BME280;57106;51.446;-2.606;2023-02-18T00:18:06;102353.68;;;11.75;77.34
69351;BME280;57106;51.446;-2.606;2023-02-18T00:20:37;102349.31;;;11.67;76.69
69351;BME280;57106;51.446;-2.606;2023-02-18T00:22:56;102347.22;;;11.71;76.15
69351;BME280;57106;51.446;-2.606;2023-02-18T00:25:22;102346.56;;;11.56;75.91
69351;BME280;57106;51.446;-2.606;2023-02-18T00:27:50;102349.10;;;11.83;75.15
69351;BME280;57106;51.446;-2.606;2023-02-18T00:30:13;102337.94;;;11.47;75.13
69351;BME280;57106;51.446;-2.606;2023-02-18T00:32:39;102347.96;;;11.24;75.53
69351;BME280;57106;51.446;-2.606;2023-02-18T00:35:04;102342.37;;;11.46;75.08
69351;BME280;57106;51.446;-2.606;2023-02-18T00:37:30;102337.44;;;11.76;74.06
69351;BME280;57106;51.446;-2.606;2023-02-18T00:39:56;102340.50;;;11.82;73.19
69351;BME280;57106;51.446;-2.606;2023-02-18T00:42:35;102333.22;;;11.88;72.66
69351;BME280;57106;51.446;-2.606;2023-02-18T00:44:51;102341.43;;;11.58;73.26
69351;BME280;57106;51.446;-2.606;2023-02-18T00:47:13;102343.06;;;11.38;73.55
69351;BME280;57106;51.446;-2.606;2023-02-18T00:49:37;102346.68;;;11.45;73.78
69351;BME280;57106;51.446;-2.606;2023-02-18T00:52:03;102342.69;;;11.53;73.11
69351;BME280;57106;51.446;-2.606;2023-02-18T00:54:28;102348.94;;;11.55;72.97
69351;BME280;57106;51.446;-2.606;2023-02-18T00:56:55;102340.74;;;11.52;72.79
69351;BME280;57106;51.446;-2.606;2023-02-18T00:59:19;102351.10;;;11.55;72.76
69351;BME280;57106;51.446;-2.606;2023-02-18T01:01:46;102348.35;;;11.27;73.27
69351;BME280;57106;51.446;-2.606;2023-02-18T01:04:11;102344.98;;;11.32;72.80
69351;BME280;57106;51.446;-2.606;2023-02-18T01:06:36;102345.01;;;11.25;72.75
69351;BME280;57106;51.446;-2.606;2023-02-18T01:09:01;102338.53;;;11.47;72.40
69351;BME280;57106;51.446;-2.606;2023-02-18T01:11:27;102340.57;;;11.36;72.13
69351;BME280;57106;51.446;-2.606;2023-02-18T01:13:52;102336.74;;;11.35;72.05
69351;BME280;57106;51.446;-2.606;2023-02-18T01:16:18;102337.36;;;11.40;71.89
69351;BME280;57106;51.446;-2.606;2023-02-18T01:18:43;102338.54;;;11.32;71.79
69351;BME280;57106;51.446;-2.606;2023-02-18T01:21:09;102335.73;;;11.43;71.73
69351;BME280;57106;51.446;-2.606;2023-02-18T01:23:34;102325.87;;;11.44;71.19
69351;BME280;57106;51.446;-2.606;2023-02-18T01:26:00;102330.12;;;11.26;71.97
69351;BME280;57106;51.446;-2.606;2023-02-18T01:28:25;102332.04;;;11.28;71.65
69351;BME280;57106;51.446;-2.606;2023-02-18T01:30:56;102325.40;;;11.54;71.04
69351;BME280;57106;51.446;-2.606;2023-02-18T01:33:16;102326.67;;;11.49;70.76
69351;BME280;57106;51.446;-2.606;2023-02-18T01:35:42;102322.59;;;11.36;71.06
69351;BME280;57106;51.446;-2.606;2023-02-18T01:38:07;102319.67;;;11.27;71.59
69351;BME280;57106;51.446;-2.606;2023-02-18T01:40:33;102315.36;;;11.31;71.47
69351;BME280;57106;51.446;-2.606;2023-02-18T01:42:59;102304.36;;;11.17;71.60
69351;BME280;57106;51.446;-2.606;2023-02-18T01:45:39;102304.94;;;11.08;72.47
69351;BME280;57106;51.446;-2.606;2023-02-18T01:47:50;102297.41;;;11.07;72.51
69351;BME280;57106;51.446;-2.606;2023-02-18T01:50:15;102291.98;;;11.11;72.58
69351;BME280;57106;51.446;-2.606;2023-02-18T01:52:41;102285.05;;;11.00;73.10
69351;BME280;57106;51.446;-2.606;2023-02-18T01:55:06;102289.18;;;10.92;74.03
69351;BME280;57106;51.446;-2.606;2023-02-18T01:57:34;102282.17;;;11.02;73.27
69351;BME280;57106;51.446;-2.606;2023-02-18T02:00:00;102278.87;;;11.06;73.49
69351;BME280;57106;51.446;-2.606;2023-02-18T02:02:26;102274.25;;;10.99;73.84
69351;BME280;57106;51.446;-2.606;2023-02-18T02:04:48;102269.98;;;10.90;74.27
69351;BME280;57106;51.446;-2.606;2023-02-18T02:07:15;102272.45;;;10.95;74.09
69351;BME280;57106;51.446;-2.606;2023-02-18T02:09:40;102270.80;;;11.00;73.86
69351;BME280;57106;51.446;-2.606;2023-02-18T02:12:18;102276.45;;;10.97;73.74
69351;BME280;57106;51.446;-2.606;2023-02-18T02:14:45;102273.14;;;10.96;74.07
69351;BME280;57106;51.446;-2.606;2023-02-18T02:17:02;102273.61;;;11.01;73.72
69351;BME280;57106;51.446;-2.606;2023-02-18T02:36:22;102269.86;;;11.37;72.67
69351;BME280;57106;51.446;-2.606;2023-02-18T02:38:53;102267.71;;;11.05;73.44
69351;BME280;57106;51.446;-2.606;2023-02-18T02:41:20;102260.35;;;11.12;73.76
69351;BME280;57106;51.446;-2.606;2023-02-18T02:43:45;102253.43;;;10.92;74.21
69351;BME280;57106;51.446;-2.606;2023-02-18T02:46:06;102246.26;;;10.99;74.41
69351;BME280;57106;51.446;-2.606;2023-02-18T02:48:34;102245.40;;;10.97;74.88
69351;BME280;57106;51.446;-2.606;2023-02-18T02:51:01;102241.52;;;10.88;75.63
69351;BME280;57106;51.446;-2.606;2023-02-18T02:53:22;102232.45;;;10.94;75.96
69351;BME280;57106;51.446;-2.606;2023-02-18T02:55:45;102221.20;;;11.00;76.32
69351;BME280;57106;51.446;-2.606;2023-02-18T02:58:14;102218.20;;;11.01;76.59
69351;BME280;57106;51.446;-2.606;2023-02-18T03:00:49;102224.02;;;11.00;76.99
69351;BME280;57106;51.446;-2.606;2023-02-18T03:03:23;102219.95;;;10.91;77.54
69351;BME280;57106;51.446;-2.606;2023-02-18T03:05:35;102222.27;;;10.77;78.01
69351;BME280;57106;51.446;-2.606;2023-02-18T03:08:02;102215.92;;;10.90;77.79
69351;BME280;57106;51.446;-2.606;2023-02-18T03:10:30;102213.08;;;11.02;77.57
69351;BME280;57106;51.446;-2.606;2023-02-18T03:12:50;102204.82;;;10.96;77.44
69351;BME280;57106;51.446;-2.606;2023-02-18T03:15:16;102208.20;;;11.14;77.25
69351;BME280;57106;51.446;-2.606;2023-02-18T03:17:37;102207.09;;;11.07;76.89
69351;BME280;57106;51.446;-2.606;2023-02-18T03:20:05;102209.60;;;11.18;76.71
69351;BME280;57106;51.446;-2.606;2023-02-18T03:22:29;102209.74;;;11.25;76.52
69351;BME280;57106;51.446;-2.606;2023-02-18T03:24:57;102205.54;;;11.28;76.03
69351;BME280;57106;51.446;-2.606;2023-02-18T03:27:21;102200.58;;;11.29;75.77
69351;BME280;57106;51.446;-2.606;2023-02-18T03:29:45;102203.10;;;11.35;75.74
69351;BME280;57106;51.446;-2.606;2023-02-18T03:32:09;102202.66;;;11.26;75.79
69351;BME280;57106;51.446;-2.606;2023-02-18T03:34:37;102201.54;;;11.38;75.70
69351;BME280;57106;51.446;-2.606;2023-02-18T03:36:59;102203.52;;;11.28;75.93
69351;BME280;57106;51.446;-2.606;2023-02-18T03:39:27;102199.42;;;11.34;75.65
69351;BME280;57106;51.446;-2.606;2023-02-18T03:41:50;102195.99;;;11.29;76.16
69351;BME280;57106;51.446;-2.606;2023-02-18T03:44:15;102185.91;;;11.31;76.34
69351;BME280;57106;51.446;-2.606;2023-02-18T03:49:06;102188.78;;;11.27;76.76
69351;BME280;57106;51.446;-2.606;2023-02-18T03:51:32;102182.64;;;11.25;76.65
69351;BME280;57106;51.446;-2.606;2023-02-18T03:53:58;102171.97;;;11.20;77.24
69351;BME280;57106;51.446;-2.606;2023-02-18T03:56:24;102172.27;;;11.09;77.55
69351;BME280;57106;51.446;-2.606;2023-02-18T03:58:49;102159.42;;;11.11;77.75
69351;BME280;57106;51.446;-2.606;2023-02-18T04:01:14;102166.65;;;11.10;77.54
69351;BME280;57106;51.446;-2.606;2023-02-18T04:03:40;102169.28;;;11.10;77.86
69351;BME280;57106;51.446;-2.606;2023-02-18T04:06:05;102171.39;;;11.16;77.33
69351;BME280;57106;51.446;-2.606;2023-02-18T04:08:31;102176.54;;;11.00;77.70
69351;BME280;57106;51.446;-2.606;2023-02-18T04:10:57;102173.21;;;11.11;77.35
69351;BME280;57106;51.446;-2.606;2023-02-18T04:13:22;102170.20;;;11.23;77.13
69351;BME280;57106;51.446;-2.606;2023-02-18T04:15:48;102173.92;;;11.20;77.19
69351;BME280;57106;51.446;-2.606;2023-02-18T04:18:13;102178.96;;;11.22;77.26
69351;BME280;57106;51.446;-2.606;2023-02-18T04:20:38;102174.05;;;11.21;77.28
69351;BME280;57106;51.446;-2.606;2023-02-18T04:23:04;102168.57;;;11.22;77.05
69351;BME280;57106;51.446;-2.606;2023-02-18T04:25:29;102176.53;;;11.43;76.90
69351;BME280;57106;51.446;-2.606;2023-02-18T04:27:55;102172.18;;;11.45;76.32
69351;BME280;57106;51.446;-2.606;2023-02-18T04:30:20;102170.73;;;11.62;75.59
69351;BME280;57106;51.446;-2.606;2023-02-18T04:32:46;102168.15;;;11.57;75.43
69351;BME280;57106;51.446;-2.606;2023-02-18T04:35:12;102160.57;;;11.66;75.16
69351;BME280;57106;51.446;-2.606;2023-02-18T04:37:37;102152.46;;;11.42;75.42
69351;BME280;57106;51.446;-2.606;2023-02-18T04:40:06;102163.11;;;11.30;75.83
69351;BME280;57106;51.446;-2.606;2023-02-18T04:42:28;102158.35;;;11.23;76.19
69351;BME280;57106;51.446;-2.606;2023-02-18T04:44:54;102156.85;;;11.39;75.73
69351;BME280;57106;51.446;-2.606;2023-02-18T04:47:19;102155.38;;;11.22;76.09
69351;BME280;57106;51.446;-2.606;2023-02-18T04:49:45;102154.14;;;11.23;76.42
69351;BME280;57106;51.446;-2.606;2023-02-18T04:52:10;102160.57;;;11.20;76.25
69351;BME280;57106;51.446;-2.606;2023-02-18T04:54:36;102151.13;;;11.28;76.41
69351;BME280;57106;51.446;-2.606;2023-02-18T04:57:01;102148.66;;;11.21;76.88
69351;BME280;57106;51.446;-2.606;2023-02-18T04:59:27;102159.14;;;11.16;77.10
69351;BME280;57106;51.446;-2.606;2023-02-18T05:01:52;102151.75;;;11.17;77.24
69351;BME280;57106;51.446;-2.606;2023-02-18T05:04:18;102166.31;;;11.08;77.95
69351;BME280;57106;51.446;-2.606;2023-02-18T05:06:43;102152.87;;;11.00;78.38
69351;BME280;57106;51.446;-2.606;2023-02-18T05:09:09;102160.04;;;11.19;77.95
69351;BME280;57106;51.446;-2.606;2023-02-18T05:11:35;102157.91;;;11.12;77.94
69351;BME280;57106;51.446;-2.606;2023-02-18T05:14:00;102179.93;;;11.09;78.51
69351;BME280;57106;51.446;-2.606;2023-02-18T05:16:26;102166.34;;;10.99;80.05
69351;BME280;57106;51.446;-2.606;2023-02-18T05:18:51;102157.60;;;10.88;80.58
69351;BME280;57106;51.446;-2.606;2023-02-18T05:21:17;102174.13;;;10.72;81.82
69351;BME280;57106;51.446;-2.606;2023-02-18T05:23:42;102160.17;;;10.70;82.25
69351;BME280;57106;51.446;-2.606;2023-02-18T05:26:08;102165.77;;;10.69;82.29
69351;BME280;57106;51.446;-2.606;2023-02-18T05:28:33;102167.81;;;10.68;82.68
69351;BME280;57106;51.446;-2.606;2023-02-18T05:30:59;102166.16;;;10.70;82.93
69351;BME280;57106;51.446;-2.606;2023-02-18T05:33:25;102169.59;;;10.59;83.93
69351;BME280;57106;51.446;-2.606;2023-02-18T05:35:50;102173.90;;;10.54;84.65
69351;BME280;57106;51.446;-2.606;2023-02-18T05:38:15;102172.86;;;10.59;84.96
69351;BME280;57106;51.446;-2.606;2023-02-18T05:40:41;102170.81;;;10.55;85.18
69351;BME280;57106;51.446;-2.606;2023-02-18T05:43:06;102171.47;;;10.55;85.67
69351;BME280;57106;51.446;-2.606;2023-02-18T05:45:32;102173.19;;;10.51;85.70
69351;BME280;57106;51.446;-2.606;2023-02-18T05:47:58;102170.10;;;10.56;86.04
69351;BME280;57106;51.446;-2.606;2023-02-18T05:50:23;102174.85;;;10.50;86.46
69351;BME280;57106;51.446;-2.606;2023-02-18T05:52:49;102182.24;;;10.49;86.75
69351;BME280;57106;51.446;-2.606;2023-02-18T05:55:14;102160.73;;;10.48;87.04
69351;BME280;57106;51.446;-2.606;2023-02-18T05:57:40;102165.06;;;10.52;86.89
69351;BME280;57106;51.446;-2.606;2023-02-18T06:00:06;102162.16;;;10.53;87.14
69351;BME280;57106;51.446;-2.606;2023-02-18T06:02:31;102158.82;;;10.62;87.05
69351;BME280;57106;51.446;-2.606;2023-02-18T06:04:57;102158.71;;;10.67;86.77
69351;BME280;57106;51.446;-2.606;2023-02-18T06:07:23;102168.19;;;10.75;86.48
69351;BME280;57106;51.446;-2.606;2023-02-18T06:09:48;102157.12;;;10.68;86.81
69351;BME280;57106;51.446;-2.606;2023-02-18T06:12:13;102157.61;;;10.65;87.13
69351;BME280;57106;51.446;-2.606;2023-02-18T06:14:39;102157.40;;;10.71;86.95
69351;BME280;57106;51.446;-2.606;2023-02-18T06:17:04;102152.99;;;10.85;86.84
69351;BME280;57106;51.446;-2.606;2023-02-18T06:19:30;102146.19;;;10.75;86.83
69351;BME280;57106;51.446;-2.606;2023-02-18T06:21:56;102151.82;;;10.72;87.20
69351;BME280;57106;51.446;-2.606;2023-02-18T06:24:21;102147.59;;;10.66;87.53
69351;BME280;57106;51.446;-2.606;2023-02-18T06:26:46;102141.39;;;10.76;87.30
69351;BME280;57106;51.446;-2.606;2023-02-18T06:29:12;102137.11;;;10.72;87.44
69351;BME280;57106;51.446;-2.606;2023-02-18T06:31:37;102147.67;;;10.79;87.49
69351;BME280;57106;51.446;-2.606;2023-02-18T06:34:03;102138.59;;;10.70;87.34
69351;BME280;57106;51.446;-2.606;2023-02-18T06:36:28;102142.29;;;10.75;87.30
69351;BME280;57106;51.446;-2.606;2023-02-18T06:38:54;102145.95;;;10.70;87.66
69351;BME280;57106;51.446;-2.606;2023-02-18T06:41:19;102142.72;;;10.86;87.58
69351;BME280;57106;51.446;-2.606;2023-02-18T06:43:47;102150.57;;;10.81;87.26
69351;BME280;57106;51.446;-2.606;2023-02-18T06:46:11;102147.14;;;10.78;87.48
69351;BME280;57106;51.446;-2.606;2023-02-18T06:48:36;102154.89;;;10.74;87.89
69351;BME280;57106;51.446;-2.606;2023-02-18T06:51:02;102145.88;;;10.80;87.80
69351;BME280;57106;51.446;-2.606;2023-02-18T06:53:28;102143.59;;;10.68;88.28
69351;BME280;57106;51.446;-2.606;2023-02-18T06:55:53;102151.22;;;10.59;88.80
69351;BME280;57106;51.446;-2.606;2023-02-18T06:58:18;102146.96;;;10.63;88.92
69351;BME280;57106;51.446;-2.606;2023-02-18T07:00:44;102155.26;;;10.60;89.17
69351;BME280;57106;51.446;-2.606;2023-02-18T07:03:11;102164.32;;;10.70;88.93
69351;BME280;57106;51.446;-2.606;2023-02-18T07:05:35;102165.72;;;10.78;88.55
69351;BME280;57106;51.446;-2.606;2023-02-18T07:08:01;102165.76;;;10.77;88.43
69351;BME280;57106;51.446;-2.606;2023-02-18T07:10:26;102167.29;;;10.84;88.09
69351;BME280;57106;51.446;-2.606;2023-02-18T07:12:52;102167.90;;;10.72;88.27
69351;BME280;57106;51.446;-2.606;2023-02-18T07:15:17;102168.62;;;10.79;88.56
69351;BME280;57106;51.446;-2.606;2023-02-18T07:17:42;102166.98;;;10.63;88.88
69351;BME280;57106;51.446;-2.606;2023-02-18T07:20:09;102176.09;;;10.59;89.44
69351;BME280;57106;51.446;-2.606;2023-02-18T07:22:33;102176.63;;;10.71;88.98
69351;BME280;57106;51.446;-2.606;2023-02-18T07:24:59;102170.57;;;10.68;89.33
69351;BME280;57106;51.446;-2.606;2023-02-18T07:27:25;102182.81;;;10.67;89.47
69351;BME280;57106;51.446;-2.606;2023-02-18T07:29:50;102172.30;;;10.60;89.45
69351;BME280;57106;51.446;-2.606;2023-02-18T07:32:17;102179.17;;;10.63;89.59
69351;BME280;57106;51.446;-2.606;2023-02-18T07:34:41;102180.38;;;10.64;89.68
69351;BME280;57106;51.446;-2.606;2023-02-18T07:37:07;102175.95;;;10.71;89.25
69351;BME280;57106;51.446;-2.606;2023-02-18T07:39:32;102177.13;;;10.57;89.54
69351;BME280;57106;51.446;-2.606;2023-02-18T07:41:58;102178.48;;;10.58;90.00
69351;BME280;57106;51.446;-2.606;2023-02-18T07:44:24;102183.44;;;10.72;89.47
69351;BME280;57106;51.446;-2.606;2023-02-18T07:46:49;102174.02;;;10.66;89.54
69351;BME280;57106;51.446;-2.606;2023-02-18T07:49:14;102181.17;;;10.73;89.60
69351;BME280;57106;51.446;-2.606;2023-02-18T07:51:40;102187.67;;;10.68;89.58
69351;BME280;57106;51.446;-2.606;2023-02-18T07:54:06;102193.84;;;10.71;89.71
69351;BME280;57106;51.446;-2.606;2023-02-18T07:56:32;102192.11;;;10.71;89.57
69351;BME280;57106;51.446;-2.606;2023-02-18T07:58:57;102192.01;;;10.86;88.72
69351;BME280;57106;51.446;-2.606;2023-02-18T08:01:22;102212.08;;;10.90;88.58
69351;BME280;57106;51.446;-2.606;2023-02-18T08:03:54;102203.82;;;10.82;88.76
69351;BME280;57106;51.446;-2.606;2023-02-18T08:06:20;102204.57;;;10.81;89.03
69351;BME280;57106;51.446;-2.606;2023-02-18T08:11:04;102205.88;;;10.82;88.80
69351;BME280;57106;51.446;-2.606;2023-02-18T08:15:56;102215.18;;;10.72;89.52
69351;BME280;57106;51.446;-2.606;2023-02-18T08:20:47;102207.09;;;10.75;89.49
69351;BME280;57106;51.446;-2.606;2023-02-18T08:30:29;102205.78;;;10.81;89.41
69351;BME280;57106;51.446;-2.606;2023-02-18T08:42:38;102207.63;;;10.92;89.15
69351;BME280;57106;51.446;-2.606;2023-02-18T08:57:10;102207.28;;;10.90;89.25
69351;BME280;57106;51.446;-2.606;2023-02-18T08:59:35;102211.25;;;10.90;89.06
69351;BME280;57106;51.446;-2.606;2023-02-18T09:02:01;102203.48;;;10.80;89.69
69351;BME280;57106;51.446;-2.606;2023-02-18T09:04:26;102208.60;;;10.82;89.87
69351;BME280;57106;51.446;-2.606;2023-02-18T09:06:52;102202.87;;;10.87;89.70
69351;BME280;57106;51.446;-2.606;2023-02-18T09:09:18;102212.87;;;10.89;90.13
69351;BME280;57106;51.446;-2.606;2023-02-18T09:11:43;102214.95;;;10.85;90.02
69351;BME280;57106;51.446;-2.606;2023-02-18T09:14:08;102211.40;;;11.00;89.61
69351;BME280;57106;51.446;-2.606;2023-02-18T09:16:34;102211.27;;;10.98;89.83
69351;BME280;57106;51.446;-2.606;2023-02-18T09:19:01;102218.29;;;10.97;89.47
69351;BME280;57106;51.446;-2.606;2023-02-18T09:21:26;102217.66;;;10.93;89.79
69351;BME280;57106;51.446;-2.606;2023-02-18T09:23:51;102226.34;;;10.97;89.69
69351;BME280;57106;51.446;-2.606;2023-02-18T09:26:19;102220.56;;;11.01;89.70
69351;BME280;57106;51.446;-2.606;2023-02-18T09:28:43;102223.02;;;11.02;89.27
69351;BME280;57106;51.446;-2.606;2023-02-18T09:31:09;102220.26;;;10.94;89.31
69351;BME280;57106;51.446;-2.606;2023-02-18T09:33:34;102224.78;;;10.92;89.73
69351;BME280;57106;51.446;-2.606;2023-02-18T09:36:00;102227.77;;;10.93;89.76
69351;BME280;57106;51.446;-2.606;2023-02-18T09:38:24;102228.41;;;10.86;90.34
69351;BME280;57106;51.446;-2.606;2023-02-18T09:40:51;102216.20;;;10.94;90.00
69351;BME280;57106;51.446;-2.606;2023-02-18T09:43:22;102216.15;;;11.03;89.71
69351;BME280;57106;51.446;-2.606;2023-02-18T09:45:41;102211.80;;;11.01;89.77
69351;BME280;57106;51.446;-2.606;2023-02-18T09:48:07;102199.73;;;11.06;89.87
69351;BME280;57106;51.446;-2.606;2023-02-18T09:50:32;102201.84;;;11.24;89.39
69351;BME280;57106;51.446;-2.606;2023-02-18T09:52:58;102192.66;;;11.17;89.25
69351;BME280;57106;51.446;-2.606;2023-02-18T09:55:26;102187.46;;;11.06;89.61
69351;BME280;57106;51.446;-2.606;2023-02-18T09:57:50;102204.45;;;11.12;89.94
69351;BME280;57106;51.446;-2.606;2023-02-18T10:00:18;102204.85;;;11.08;89.44
69351;BME280;57106;51.446;-2.606;2023-02-18T10:02:42;102197.19;;;11.13;89.63
69351;BME280;57106;51.446;-2.606;2023-02-18T10:05:05;102197.40;;;10.99;89.76
69351;BME280;57106;51.446;-2.606;2023-02-18T10:07:32;102195.41;;;11.16;89.42
69351;BME280;57106;51.446;-2.606;2023-02-18T10:09:58;102198.87;;;11.21;89.39
69351;BME280;57106;51.446;-2.606;2023-02-18T10:12:23;102202.17;;;11.38;88.77
69351;BME280;57106;51.446;-2.606;2023-02-18T10:14:53;102210.14;;;11.44;88.42
69351;BME280;57106;51.446;-2.606;2023-02-18T10:17:14;102207.15;;;11.44;88.46
69351;BME280;57106;51.446;-2.606;2023-02-18T10:19:40;102205.12;;;11.50;87.91
69351;BME280;57106;51.446;-2.606;2023-02-18T10:22:06;102215.43;;;11.45;88.60
69351;BME280;57106;51.446;-2.606;2023-02-18T10:24:31;102209.45;;;11.38;88.33
69351;BME280;57106;51.446;-2.606;2023-02-18T10:26:56;102217.48;;;11.26;89.16
69351;BME280;57106;51.446;-2.606;2023-02-18T10:29:21;102217.17;;;11.35;89.37
69351;BME280;57106;51.446;-2.606;2023-02-18T10:31:51;102217.72;;;11.46;88.33
69351;BME280;57106;51.446;-2.606;2023-02-18T10:34:15;102226.54;;;11.48;87.79
69351;BME280;57106;51.446;-2.606;2023-02-18T10:36:44;102230.10;;;11.59;87.85
69351;BME280;57106;51.446;-2.606;2023-02-18T10:39:18;102233.72;;;11.46;87.87
69351;BME280;57106;51.446;-2.606;2023-02-18T10:41:33;102230.36;;;11.58;87.37
69351;BME280;57106;51.446;-2.606;2023-02-18T10:43:57;102238.41;;;11.59;87.48
69351;BME280;57106;51.446;-2.606;2023-02-18T10:46:24;102237.60;;;11.53;87.76
69351;BME280;57106;51.446;-2.606;2023-02-18T10:48:58;102235.52;;;11.51;87.44
69351;BME280;57106;51.446;-2.606;2023-02-18T10:51:14;102231.75;;;11.42;88.05
69351;BME280;57106;51.446;-2.606;2023-02-18T10:53:38;102228.90;;;11.45;88.16
69351;BME280;57106;51.446;-2.606;2023-02-18T10:56:02;102233.50;;;11.37;88.20
69351;BME280;57106;51.446;-2.606;2023-02-18T10:58:31;102231.69;;;11.42;88.53
69351;BME280;57106;51.446;-2.606;2023-02-18T11:00:52;102233.33;;;11.39;88.47
69351;BME280;57106;51.446;-2.606;2023-02-18T11:03:19;102240.37;;;11.36;88.69
69351;BME280;57106;51.446;-2.606;2023-02-18T11:05:44;102236.17;;;11.35;88.73
69351;BME280;57106;51.446;-2.606;2023-02-18T11:08:13;102228.58;;;11.39;88.56
69351;BME280;57106;51.446;-2.606;2023-02-18T11:10:38;102239.39;;;11.35;88.91
69351;BME280;57106;51.446;-2.606;2023-02-18T11:13:01;102228.37;;;11.72;88.10
69351;BME280;57106;51.446;-2.606;2023-02-18T11:15:27;102247.15;;;11.61;87.72
69351;BME280;57106;51.446;-2.606;2023-02-18T11:17:52;102224.60;;;11.63;87.77
69351;BME280;57106;51.446;-2.606;2023-02-18T11:20:26;102227.30;;;11.53;88.04
69351;BME280;57106;51.446;-2.606;2023-02-18T11:22:42;102229.42;;;11.63;87.68
69351;BME280;57106;51.446;-2.606;2023-02-18T11:25:18;102225.87;;;11.49;88.03
69351;BME280;57106;51.446;-2.606;2023-02-18T11:27:38;102223.73;;;11.46;88.11
69351;BME280;57106;51.446;-2.606;2023-02-18T11:30:00;102223.48;;;11.54;87.86
69351;BME280;57106;51.446;-2.606;2023-02-18T11:32:26;102224.00;;;11.48;88.13
69351;BME280;57106;51.446;-2.606;2023-02-18T11:34:49;102220.30;;;11.53;88.11
69351;BME280;57106;51.446;-2.606;2023-02-18T11:37:18;102219.28;;;11.59;87.89
69351;BME280;57106;51.446;-2.606;2023-02-18T11:39:43;102227.81;;;11.57;87.90
69351;BME280;57106;51.446;-2.606;2023-02-18T11:42:06;102224.89;;;11.53;87.99
69351;BME280;57106;51.446;-2.606;2023-02-18T11:44:33;102223.34;;;11.60;88.16
69351;BME280;57106;51.446;-2.606;2023-02-18T11:47:00;102221.71;;;11.57;87.91
69351;BME280;57106;51.446;-2.606;2023-02-18T11:49:23;102228.47;;;11.54;87.74
69351;BME280;57106;51.446;-2.606;2023-02-18T11:51:48;102222.35;;;11.55;87.84
69351;BME280;57106;51.446;-2.606;2023-02-18T11:54:21;102221.90;;;11.74;87.41
69351;BME280;57106;51.446;-2.606;2023-02-18T11:56:39;102224.08;;;11.63;87.45
69351;BME280;57106;51.446;-2.606;2023-02-18T11:59:08;102217.05;;;11.69;87.52
69351;BME280;57106;51.446;-2.606;2023-02-18T12:01:37;102211.48;;;11.54;87.66
69351;BME280;57106;51.446;-2.606;2023-02-18T12:03:58;102223.23;;;11.58;87.59
69351;BME280;57106;51.446;-2.606;2023-02-18T12:06:23;102216.38;;;11.68;87.10
69351;BME280;57106;51.446;-2.606;2023-02-18T12:08:50;102218.41;;;11.64;87.43
69351;BME280;57106;51.446;-2.606;2023-02-18T12:11:16;102220.59;;;11.61;87.84
69351;BME280;57106;51.446;-2.606;2023-02-18T12:13:43;102224.47;;;11.55;87.71
69351;BME280;57106;51.446;-2.606;2023-02-18T12:16:12;102224.99;;;11.53;87.86
69351;BME280;57106;51.446;-2.606;2023-02-18T12:18:41;102225.36;;;11.59;87.66
69351;BME280;57106;51.446;-2.606;2023-02-18T12:21:08;102226.01;;;11.77;87.00
69351;BME280;57106;51.446;-2.606;2023-02-18T12:23:24;102234.73;;;11.64;87.13
69351;BME280;57106;51.446;-2.606;2023-02-18T12:25:50;102229.36;;;11.62;87.48
69351;BME280;57106;51.446;-2.606;2023-02-18T12:28:22;102233.66;;;11.77;87.27
69351;BME280;57106;51.446;-2.606;2023-02-18T12:30:52;102235.08;;;11.90;86.42
69351;BME280;57106;51.446;-2.606;2023-02-18T12:33:07;102244.31;;;11.56;87.05
69351;BME280;57106;51.446;-2.606;2023-02-18T12:35:44;102234.24;;;11.76;86.84
69351;BME280;57106;51.446;-2.606;2023-02-18T12:38:03;102235.60;;;11.78;86.33
69351;BME280;57106;51.446;-2.606;2023-02-18T12:40:33;102228.73;;;11.66;86.26
69351;BME280;57106;51.446;-2.606;2023-02-18T12:42:51;102234.57;;;11.67;86.15
69351;BME280;57106;51.446;-2.606;2023-02-18T12:45:19;102230.36;;;11.72;86.53
69351;BME280;57106;51.446;-2.606;2023-02-18T12:47:45;102228.68;;;11.66;86.63
69351;BME280;57106;51.446;-2.606;2023-02-18T12:50:13;102224.27;;;11.58;87.06
69351;BME280;57106;51.446;-2.606;2023-02-18T12:52:35;102219.78;;;11.57;86.94
69351;BME280;57106;51.446;-2.606;2023-02-18T12:57:30;102216.17;;;11.63;86.78
69351;BME280;57106;51.446;-2.606;2023-02-18T12:59:51;102217.37;;;11.76;86.18
69351;BME280;57106;51.446;-2.606;2023-02-18T13:02:17;102218.57;;;11.63;86.55
69351;BME280;57106;51.446;-2.606;2023-02-18T13:04:43;102215.94;;;11.73;86.28
69351;BME280;57106;51.446;-2.606;2023-02-18T13:07:12;102212.19;;;11.73;86.69
69351;BME280;57106;51.446;-2.606;2023-02-18T13:09:33;102211.85;;;11.65;86.77
69351;BME280;57106;51.446;-2.606;2023-02-18T13:11:56;102205.25;;;11.81;86.44
69351;BME280;57106;51.446;-2.606;2023-02-18T13:14:20;102199.75;;;11.87;85.66
69351;BME280;57106;51.446;-2.606;2023-02-18T13:16:44;102212.42;;;11.90;85.63
69351;BME280;57106;51.446;-2.606;2023-02-18T13:19:15;102200.93;;;11.69;85.91
69351;BME280;57106;51.446;-2.606;2023-02-18T13:21:32;102187.41;;;11.56;86.75
69351;BME280;57106;51.446;-2.606;2023-02-18T13:24:00;102189.34;;;11.68;86.41
69351;BME280;57106;51.446;-2.606;2023-02-18T13:26:23;102187.37;;;11.75;86.16
69351;BME280;57106;51.446;-2.606;2023-02-18T13:28:53;102182.54;;;11.70;86.24